Time;durP1;ratioP1;P1;durP2;ratioP2;P2;SDS_P1;SDS_P2;PMS_P1;PMS_P2;Temp;Humidity;BMP_temperature;BMP_pressure;BME280_temperature;BME280_humidity;BME280_pressure;Samples;Min_cycle;Max_cycle;Signal;HPM_P1;HPM_P2
2023/03/06 00:01:54;;;;;;;8.52;8.13;;;;;;;;;;5009707;28;20088;-62
2023/03/06 00:04:19;;;;;;;8.75;8.35;;;;;;;;;;5011520;28;20507;-63
2023/03/06 00:06:45;;;;;;;9.10;8.63;;;;;;;;;;5011011;28;20397;-62
2023/03/06 00:09:10;;;;;;;8.32;7.93;;;;;;;;;;5011680;28;20040;-63
2023/03/06 00:11:35;;;;;;;8.40;8.00;;;;;;;;;;5011312;28;20477;-63
2023/03/06 00:14:01;;;;;;;9.55;9.05;;;;;;;;;;5011288;28;20483;-62
2023/03/06 00:16:26;;;;;;;8.50;8.10;;;;;;;;;;5009596;28;20428;-63
2023/03/06 00:18:51;;;;;;;9.40;8.90;;;;;;;;;;5011112;28;20169;-62
2023/03/06 00:21:16;;;;;;;8.60;8.20;;;;;;;;;;5011399;28;20025;-62
2023/03/06 00:23:42;;;;;;;8.77;8.38;;;;;;;;;;5014761;28;20022;-63
2023/03/06 00:26:07;;;;;;;8.50;8.10;;;;;;;;;;5015350;28;20037;-62
2023/03/06 00:28:33;;;;;;;8.63;8.23;;;;;;;;;;5001729;28;20022;-61
2023/03/06 00:30:59;;;;;;;10.30;9.70;;;;;;;;;;5005097;28;20022;-63
2023/03/06 00:33:24;;;;;;;8.60;8.20;;;;;;;;;;5007739;28;20021;-63
2023/03/06 00:35:50;;;;;;;9.35;8.85;;;;;;;;;;5013490;28;20021;-62
2023/03/06 00:38:15;;;;;;;8.85;8.45;;;;;;;;;;5014365;28;20017;-63
2023/03/06 00:40:40;;;;;;;8.52;8.13;;;;;;;;;;5014533;28;20030;-63
2023/03/06 00:43:06;;;;;;;9.25;8.75;;;;;;;;;;5012607;28;20022;-63
2023/03/06 00:45:31;;;;;;;9.30;8.80;;;;;;;;;;5013065;28;20024;-62
2023/03/06 00:47:56;;;;;;;9.35;8.85;;;;;;;;;;5014512;28;20076;-62
2023/03/06 00:50:22;;;;;;;8.52;8.13;;;;;;;;;;5014636;28;20401;-62
2023/03/06 00:52:47;;;;;;;8.38;7.97;;;;;;;;;;5014765;28;20330;-62
2023/03/06 00:55:13;;;;;;;9.55;9.05;;;;;;;;;;5014073;28;20029;-62
2023/03/06 00:57:38;;;;;;;9.20;8.70;;;;;;;;;;5013054;28;20034;-63
2023/03/06 01:00:04;;;;;;;8.63;8.23;;;;;;;;;;5014048;28;20033;-63
2023/03/06 01:02:30;;;;;;;8.70;8.30;;;;;;;;;;5013940;28;20022;-62
2023/03/06 01:04:55;;;;;;;9.32;8.82;;;;;;;;;;5013232;28;20495;-63
2023/03/06 01:07:20;;;;;;;9.60;9.10;;;;;;;;;;5013970;28;20017;-62
2023/03/06 01:09:46;;;;;;;9.27;8.77;;;;;;;;;;5016012;28;20462;-62
2023/03/06 01:12:11;;;;;;;9.77;9.27;;;;;;;;;;5012766;28;20396;-63
2023/03/06 01:14:36;;;;;;;9.02;8.52;;;;;;;;;;5013957;28;20018;-62
2023/03/06 01:17:02;;;;;;;9.43;8.93;;;;;;;;;;5013553;28;20022;-63
2023/03/06 01:19:27;;;;;;;8.70;8.30;;;;;;;;;;5014246;28;20366;-62
2023/03/06 01:21:52;;;;;;;9.20;8.70;;;;;;;;;;5014168;28;20026;-62
2023/03/06 01:24:18;;;;;;;9.20;8.70;;;;;;;;;;5013640;28;20021;-62
2023/03/06 01:26:43;;;;;;;8.30;7.90;;;;;;;;;;5002917;28;20033;-62
2023/03/06 01:29:08;;;;;;;9.32;8.82;;;;;;;;;;5006934;28;20039;-62
2023/03/06 01:31:34;;;;;;;9.15;8.65;;;;;;;;;;5011220;28;20479;-62
2023/03/06 01:34:00;;;;;;;8.90;8.50;;;;;;;;;;5012005;28;20080;-63
2023/03/06 01:36:25;;;;;;;9.20;8.70;;;;;;;;;;5012635;28;20152;-62
2023/03/06 01:38:50;;;;;;;9.20;8.70;;;;;;;;;;5013645;28;20045;-62
2023/03/06 01:41:16;;;;;;;8.70;8.30;;;;;;;;;;5005608;28;20105;-62
2023/03/06 01:43:43;;;;;;;9.45;8.95;;;;;;;;;;5013356;28;20503;-63
2023/03/06 01:46:08;;;;;;;8.88;8.43;;;;;;;;;;5013379;28;20326;-63
2023/03/06 01:48:33;;;;;;;8.90;8.50;;;;;;;;;;4994625;28;20037;-63
2023/03/06 01:50:59;;;;;;;8.60;8.20;;;;;;;;;;5013149;28;20492;-63
2023/03/06 01:53:24;;;;;;;9.95;9.40;;;;;;;;;;5011380;28;20049;-63
2023/03/06 01:55:49;;;;;;;8.50;8.10;;;;;;;;;;5013097;28;20452;-63
2023/03/06 01:58:17;;;;;;;9.18;8.68;;;;;;;;;;5012793;28;20117;-62
2023/03/06 02:00:42;;;;;;;9.65;9.15;;;;;;;;;;5012788;28;20026;-63
2023/03/06 02:03:17;;;;;;;9.38;8.88;;;;;;;;;;5012651;28;20117;-63
2023/03/06 02:05:42;;;;;;;8.70;8.30;;;;;;;;;;5000856;28;20426;-63
2023/03/06 02:08:09;;;;;;;8.90;8.50;;;;;;;;;;5011811;28;20108;-63
2023/03/06 02:10:34;;;;;;;9.50;9.00;;;;;;;;;;5008050;28;20022;-63
2023/03/06 02:13:00;;;;;;;9.32;8.82;;;;;;;;;;5013049;28;20017;-63
2023/03/06 02:15:27;;;;;;;8.98;8.57;;;;;;;;;;5013456;28;20010;-63
2023/03/06 02:17:53;;;;;;;9.02;8.63;;;;;;;;;;5012789;28;20062;-63
2023/03/06 02:20:25;;;;;;;9.13;8.70;;;;;;;;;;5010966;28;20050;-63
2023/03/06 02:23:09;;;;;;;9.60;9.10;;;;;;;;;;5007134;28;20116;-63
2023/03/06 02:25:37;;;;;;;9.10;8.68;;;;;;;;;;5001524;28;20025;-63
2023/03/06 02:28:03;;;;;;;8.73;8.32;;;;;;;;;;5012580;28;20026;-62
2023/03/06 02:30:29;;;;;;;8.50;8.10;;;;;;;;;;5012461;28;20060;-63
2023/03/06 02:32:54;;;;;;;8.70;8.30;;;;;;;;;;5011717;28;20453;-63
2023/03/06 02:35:24;;;;;;;9.57;9.07;;;;;;;;;;5010989;28;20025;-63
2023/03/06 02:37:49;;;;;;;8.60;8.20;;;;;;;;;;5010848;28;20029;-62
2023/03/06 02:40:16;;;;;;;8.50;8.10;;;;;;;;;;5012666;28;20033;-62
2023/03/06 02:42:45;;;;;;;8.20;7.80;;;;;;;;;;5012856;28;20056;-62
2023/03/06 02:45:11;;;;;;;9.45;8.95;;;;;;;;;;5011507;28;20538;-62
2023/03/06 02:47:36;;;;;;;9.57;9.07;;;;;;;;;;5015582;28;20036;-62
2023/03/06 02:50:02;;;;;;;8.85;8.45;;;;;;;;;;5005657;28;20018;-62
2023/03/06 02:52:27;;;;;;;9.18;8.68;;;;;;;;;;5009242;28;20018;-61
2023/03/06 02:54:52;;;;;;;8.90;8.50;;;;;;;;;;5013046;28;20072;-62
2023/03/06 02:57:18;;;;;;;9.23;8.73;;;;;;;;;;5012203;28;20500;-62
2023/03/06 02:59:43;;;;;;;9.10;8.60;;;;;;;;;;5012296;28;20022;-63
2023/03/06 03:02:08;;;;;;;9.00;8.55;;;;;;;;;;5011170;28;20018;-63
2023/03/06 03:04:34;;;;;;;8.48;8.07;;;;;;;;;;5012249;28;20029;-62
2023/03/06 03:06:59;;;;;;;8.32;7.93;;;;;;;;;;5011955;28;20029;-62
2023/03/06 03:09:26;;;;;;;8.70;8.30;;;;;;;;;;5012050;28;20037;-62
2023/03/06 03:11:51;;;;;;;9.23;8.73;;;;;;;;;;5011726;28;20096;-62
2023/03/06 03:14:16;;;;;;;8.63;8.23;;;;;;;;;;5011777;28;20568;-62
2023/03/06 03:16:42;;;;;;;7.93;7.57;;;;;;;;;;5012553;28;20029;-62
2023/03/06 03:19:07;;;;;;;8.38;7.97;;;;;;;;;;5011192;28;20033;-63
2023/03/06 03:21:32;;;;;;;8.65;8.25;;;;;;;;;;5011894;28;20026;-63
2023/03/06 03:23:58;;;;;;;9.38;8.88;;;;;;;;;;5011661;28;20032;-63
2023/03/06 03:26:23;;;;;;;9.18;8.68;;;;;;;;;;5010505;28;20366;-63
2023/03/06 03:28:48;;;;;;;8.70;8.30;;;;;;;;;;5011663;28;20050;-62
2023/03/06 03:31:13;;;;;;;8.75;8.35;;;;;;;;;;5011805;28;20014;-63
2023/03/06 03:33:39;;;;;;;8.23;7.82;;;;;;;;;;5007849;28;20018;-62
2023/03/06 03:36:06;;;;;;;9.65;9.15;;;;;;;;;;5011572;28;20017;-63
2023/03/06 03:38:31;;;;;;;9.15;8.65;;;;;;;;;;5011478;28;20057;-62
2023/03/06 03:40:57;;;;;;;8.90;8.50;;;;;;;;;;5011478;28;20080;-62
2023/03/06 03:43:22;;;;;;;8.40;8.00;;;;;;;;;;5006165;28;20556;-62
2023/03/06 03:45:47;;;;;;;8.60;8.20;;;;;;;;;;5008268;28;20030;-62
2023/03/06 03:48:13;;;;;;;8.98;8.55;;;;;;;;;;5009167;28;20373;-62
2023/03/06 03:50:38;;;;;;;9.27;8.77;;;;;;;;;;5011346;28;20037;-62
2023/03/06 03:53:03;;;;;;;9.55;9.05;;;;;;;;;;5011363;28;20032;-63
2023/03/06 03:55:29;;;;;;;8.88;8.48;;;;;;;;;;5011759;28;20090;-62
2023/03/06 03:57:54;;;;;;;8.35;7.95;;;;;;;;;;5015210;28;20033;-62
2023/03/06 04:00:19;;;;;;;9.15;8.65;;;;;;;;;;5004848;28;20030;-62
2023/03/06 04:02:45;;;;;;;9.20;8.70;;;;;;;;;;5013343;28;20034;-62
2023/03/06 04:05:11;;;;;;;9.55;9.05;;;;;;;;;;5013200;28;20044;-62
2023/03/06 04:07:37;;;;;;;8.88;8.48;;;;;;;;;;5009051;28;20022;-62
2023/03/06 04:10:03;;;;;;;9.27;8.77;;;;;;;;;;5015164;28;20427;-62
2023/03/06 04:12:28;;;;;;;8.75;8.35;;;;;;;;;;5014925;28;20025;-62
2023/03/06 04:14:53;;;;;;;8.93;8.48;;;;;;;;;;5013843;28;20076;-62
2023/03/06 04:17:18;;;;;;;9.63;9.13;;;;;;;;;;5013524;28;20068;-62
2023/03/06 04:19:44;;;;;;;9.18;8.68;;;;;;;;;;5014449;28;20014;-62
2023/03/06 04:22:09;;;;;;;8.80;8.40;;;;;;;;;;5014727;28;20105;-63
2023/03/06 04:24:34;;;;;;;9.70;9.20;;;;;;;;;;5014758;28;20031;-63
2023/03/06 04:26:59;;;;;;;9.50;9.00;;;;;;;;;;5014377;28;20021;-63
2023/03/06 04:29:25;;;;;;;9.10;8.60;;;;;;;;;;4996459;28;20103;-62
2023/03/06 04:31:50;;;;;;;9.30;8.80;;;;;;;;;;5014499;28;20105;-63
2023/03/06 04:34:15;;;;;;;9.63;9.13;;;;;;;;;;5014819;28;20041;-63
2023/03/06 04:36:46;;;;;;;9.70;9.20;;;;;;;;;;5016338;28;20045;-62
2023/03/06 04:39:12;;;;;;;9.52;9.02;;;;;;;;;;5014352;28;20025;-63
2023/03/06 04:41:38;;;;;;;9.80;9.30;;;;;;;;;;5014460;28;20018;-63
2023/03/06 04:44:03;;;;;;;9.35;8.85;;;;;;;;;;5005263;28;20030;-62
2023/03/06 04:46:28;;;;;;;9.48;8.98;;;;;;;;;;5013768;28;20440;-61
2023/03/06 04:48:54;;;;;;;8.93;8.50;;;;;;;;;;5008852;28;20018;-61
2023/03/06 04:51:19;;;;;;;9.38;8.88;;;;;;;;;;5011474;28;20029;-61
2023/03/06 04:53:44;;;;;;;9.60;9.10;;;;;;;;;;5002428;28;20500;-62
2023/03/06 04:56:10;;;;;;;9.48;8.98;;;;;;;;;;5014230;28;20021;-61
2023/03/06 04:58:35;;;;;;;8.65;8.25;;;;;;;;;;5014167;28;20037;-62
2023/03/06 05:01:01;;;;;;;9.48;8.98;;;;;;;;;;5013431;28;20026;-62
2023/03/06 05:03:26;;;;;;;9.05;8.60;;;;;;;;;;5013753;28;20026;-63
2023/03/06 05:05:51;;;;;;;9.93;9.43;;;;;;;;;;5013295;28;20025;-62
2023/03/06 05:08:17;;;;;;;9.70;9.20;;;;;;;;;;5010814;28;20029;-63
2023/03/06 05:10:43;;;;;;;9.50;9.00;;;;;;;;;;5010150;28;20017;-63
2023/03/06 05:13:08;;;;;;;9.30;8.80;;;;;;;;;;5013446;28;20025;-63
2023/03/06 05:15:34;;;;;;;9.43;8.93;;;;;;;;;;5013968;28;20013;-63
2023/03/06 05:17:59;;;;;;;9.50;9.00;;;;;;;;;;5012966;28;20022;-64
2023/03/06 05:20:24;;;;;;;9.18;8.68;;;;;;;;;;4992528;28;20022;-63
2023/03/06 05:22:49;;;;;;;9.02;8.57;;;;;;;;;;5012939;28;20104;-64
2023/03/06 05:25:15;;;;;;;8.90;8.50;;;;;;;;;;5012306;28;20399;-63
2023/03/06 05:27:41;;;;;;;9.07;8.65;;;;;;;;;;5014604;28;20029;-62
2023/03/06 05:30:07;;;;;;;9.68;9.18;;;;;;;;;;5014907;28;20580;-62
2023/03/06 05:32:33;;;;;;;9.50;9.00;;;;;;;;;;5013333;28;20100;-62
2023/03/06 05:34:58;;;;;;;9.05;8.55;;;;;;;;;;5009029;28;20030;-63
2023/03/06 05:37:24;;;;;;;10.07;9.48;;;;;;;;;;5012918;28;20104;-63
2023/03/06 05:39:49;;;;;;;8.60;8.20;;;;;;;;;;5002044;28;20034;-63
2023/03/06 05:42:15;;;;;;;9.10;8.63;;;;;;;;;;5013184;28;20026;-63
2023/03/06 05:44:40;;;;;;;10.68;10.07;;;;;;;;;;5011568;28;20025;-63
2023/03/06 05:47:06;;;;;;;9.52;9.02;;;;;;;;;;5012602;28;20062;-63
2023/03/06 05:49:32;;;;;;;9.75;9.25;;;;;;;;;;5005197;28;20041;-62
2023/03/06 05:51:58;;;;;;;9.57;9.07;;;;;;;;;;5016041;28;20059;-63
2023/03/06 05:54:25;;;;;;;9.23;8.73;;;;;;;;;;5012811;28;20037;-63
2023/03/06 05:56:50;;;;;;;9.70;9.20;;;;;;;;;;5011006;28;20430;-63
2023/03/06 05:59:15;;;;;;;9.60;9.10;;;;;;;;;;5012738;28;20024;-62
2023/03/06 06:01:40;;;;;;;10.32;9.73;;;;;;;;;;5009665;28;20022;-63
2023/03/06 06:04:06;;;;;;;10.73;10.13;;;;;;;;;;5003372;28;20449;-63
2023/03/06 06:06:31;;;;;;;9.10;8.65;;;;;;;;;;5012239;28;20030;-63
2023/03/06 06:08:56;;;;;;;9.43;8.93;;;;;;;;;;5013056;28;20139;-63
2023/03/06 06:11:22;;;;;;;10.13;9.57;;;;;;;;;;5012251;28;20024;-63
2023/03/06 06:13:48;;;;;;;9.30;8.80;;;;;;;;;;5007034;28;20512;-62
2023/03/06 06:16:18;;;;;;;8.80;8.40;;;;;;;;;;5009123;28;20041;-69
2023/03/06 06:18:44;;;;;;;9.75;9.25;;;;;;;;;;5012478;28;20025;-63
2023/03/06 06:21:10;;;;;;;9.52;9.02;;;;;;;;;;5012869;28;20026;-63
2023/03/06 06:23:35;;;;;;;10.60;10.00;;;;;;;;;;5010529;28;20029;-63
2023/03/06 06:26:02;;;;;;;9.43;8.93;;;;;;;;;;4997526;28;20393;-63
2023/03/06 06:28:28;;;;;;;10.13;9.52;;;;;;;;;;5011505;28;20034;-63
2023/03/06 06:30:53;;;;;;;8.98;8.57;;;;;;;;;;5003319;28;20520;-63
2023/03/06 06:33:18;;;;;;;9.20;8.70;;;;;;;;;;5012154;28;20444;-63
2023/03/06 06:35:44;;;;;;;9.30;8.80;;;;;;;;;;5006945;28;20018;-64
2023/03/06 06:38:09;;;;;;;8.65;8.25;;;;;;;;;;5012399;28;20032;-63
2023/03/06 06:40:34;;;;;;;8.55;8.15;;;;;;;;;;5008469;28;20556;-63
2023/03/06 06:43:00;;;;;;;9.50;9.00;;;;;;;;;;5012267;28;20145;-62
2023/03/06 06:45:25;;;;;;;9.48;8.98;;;;;;;;;;5005033;28;20061;-63
2023/03/06 06:47:50;;;;;;;9.73;9.23;;;;;;;;;;5009971;28;20504;-62
2023/03/06 06:50:16;;;;;;;8.98;8.57;;;;;;;;;;5012257;28;20468;-63
2023/03/06 06:52:41;;;;;;;9.40;8.90;;;;;;;;;;5011097;28;20033;-63
2023/03/06 06:55:07;;;;;;;9.68;9.18;;;;;;;;;;5011495;28;20176;-64
2023/03/06 06:57:32;;;;;;;8.85;8.45;;;;;;;;;;5011554;28;20026;-63
2023/03/06 06:59:58;;;;;;;9.80;9.30;;;;;;;;;;5000087;28;20022;-62
2023/03/06 07:02:23;;;;;;;9.35;8.85;;;;;;;;;;5011669;28;20165;-64
2023/03/06 07:04:49;;;;;;;9.48;8.98;;;;;;;;;;5011721;28;20048;-63
2023/03/06 07:07:14;;;;;;;9.10;8.70;;;;;;;;;;5011791;28;20022;-63
2023/03/06 07:09:40;;;;;;;9.05;8.65;;;;;;;;;;5005292;28;20338;-62
2023/03/06 07:12:06;;;;;;;10.23;9.65;;;;;;;;;;5009168;28;20552;-62
2023/03/06 07:14:31;;;;;;;9.40;8.95;;;;;;;;;;5011572;28;20053;-62
2023/03/06 07:16:57;;;;;;;9.73;9.23;;;;;;;;;;5011692;28;20079;-62
2023/03/06 07:19:22;;;;;;;9.45;8.95;;;;;;;;;;5011595;28;20022;-63
2023/03/06 07:21:48;;;;;;;9.48;9.02;;;;;;;;;;5011714;28;20021;-62
2023/03/06 07:24:13;;;;;;;10.88;10.27;;;;;;;;;;5011488;28;20049;-62
2023/03/06 07:26:38;;;;;;;9.20;8.80;;;;;;;;;;5010428;28;20385;-62
2023/03/06 07:29:04;;;;;;;9.18;8.77;;;;;;;;;;5011022;28;20177;-62
2023/03/06 07:31:29;;;;;;;9.77;9.27;;;;;;;;;;5008438;28;20053;-62
2023/03/06 07:33:54;;;;;;;9.75;9.25;;;;;;;;;;5007701;28;20432;-62
2023/03/06 07:36:21;;;;;;;9.65;9.15;;;;;;;;;;5012157;28;20045;-62
2023/03/06 07:38:46;;;;;;;10.00;9.50;;;;;;;;;;5001812;28;20033;-61
2023/03/06 07:41:12;;;;;;;10.93;10.32;;;;;;;;;;5010613;28;20033;-62
2023/03/06 07:43:44;;;;;;;9.90;9.40;;;;;;;;;;5008226;28;20079;-62
2023/03/06 07:46:10;;;;;;;9.50;9.05;;;;;;;;;;5012471;28;20041;-62
2023/03/06 07:48:35;;;;;;;9.63;9.13;;;;;;;;;;5014451;28;20863;-68
2023/03/06 07:51:02;;;;;;;10.43;9.93;;;;;;;;;;5020652;28;20030;-66
2023/03/06 07:53:27;;;;;;;9.48;9.05;;;;;;;;;;5013976;28;20026;-69
2023/03/06 07:55:53;;;;;;;9.52;9.10;;;;;;;;;;5028207;28;20025;-69
2023/03/06 07:58:18;;;;;;;8.95;8.55;;;;;;;;;;5021381;28;20033;-70
2023/03/06 08:00:45;;;;;;;9.80;9.30;;;;;;;;;;5014115;28;20401;-69
2023/03/06 08:03:10;;;;;;;10.23;9.73;;;;;;;;;;5011878;28;20029;-67
2023/03/06 08:05:36;;;;;;;9.93;9.43;;;;;;;;;;5009924;28;20030;-67
2023/03/06 08:08:02;;;;;;;9.40;9.00;;;;;;;;;;5023146;28;20033;-67
2023/03/06 08:10:28;;;;;;;9.82;9.32;;;;;;;;;;4999195;28;20044;-65
2023/03/06 08:12:54;;;;;;;10.23;9.73;;;;;;;;;;5020518;28;20058;-69
2023/03/06 08:15:19;;;;;;;10.07;9.57;;;;;;;;;;5000054;28;20111;-67
2023/03/06 08:17:44;;;;;;;9.82;9.40;;;;;;;;;;5013470;28;20548;-71
2023/03/06 08:20:10;;;;;;;9.73;9.32;;;;;;;;;;5012398;28;20018;-68
2023/03/06 08:22:36;;;;;;;9.65;9.25;;;;;;;;;;5012639;28;20419;-71
2023/03/06 08:25:01;;;;;;;10.38;9.88;;;;;;;;;;4998213;28;20049;-68
2023/03/06 08:27:27;;;;;;;10.30;9.80;;;;;;;;;;5014599;28;20562;-68
2023/03/06 08:29:52;;;;;;;10.23;9.73;;;;;;;;;;5015186;28;20041;-70
2023/03/06 08:32:17;;;;;;;9.70;9.30;;;;;;;;;;5019137;28;20018;-67
2023/03/06 08:34:44;;;;;;;10.43;9.93;;;;;;;;;;5020065;28;20083;-68
2023/03/06 08:37:09;;;;;;;9.80;9.40;;;;;;;;;;5009993;28;20038;-69
2023/03/06 08:39:35;;;;;;;9.98;9.57;;;;;;;;;;5012227;28;20037;-71
2023/03/06 08:42:00;;;;;;;10.18;9.77;;;;;;;;;;5019410;28;20029;-69
2023/03/06 08:44:25;;;;;;;10.60;10.10;;;;;;;;;;4995927;28;20033;-70
2023/03/06 08:46:50;;;;;;;10.10;9.70;;;;;;;;;;5011400;28;20040;-70
2023/03/06 08:49:16;;;;;;;10.38;9.88;;;;;;;;;;5013099;28;20032;-71
2023/03/06 08:51:41;;;;;;;10.65;10.15;;;;;;;;;;5012938;28;20076;-71
2023/03/06 08:54:07;;;;;;;10.70;10.20;;;;;;;;;;5010600;28;20026;-70
2023/03/06 08:56:33;;;;;;;10.13;9.73;;;;;;;;;;5011749;28;20026;-64
2023/03/06 08:58:59;;;;;;;10.35;9.88;;;;;;;;;;5018184;28;20026;-67
2023/03/06 09:01:25;;;;;;;10.05;9.65;;;;;;;;;;5012795;28;20022;-67
2023/03/06 09:03:52;;;;;;;10.45;9.95;;;;;;;;;;5008432;28;20033;-67
2023/03/06 09:06:18;;;;;;;11.38;10.88;;;;;;;;;;5007991;28;20382;-67
2023/03/06 09:08:43;;;;;;;11.23;10.73;;;;;;;;;;5009395;28;20025;-68
2023/03/06 09:11:12;;;;;;;10.95;10.45;;;;;;;;;;5014725;28;20021;-69
2023/03/06 09:13:38;;;;;;;10.02;9.63;;;;;;;;;;5012439;28;20022;-66
2023/03/06 09:16:03;;;;;;;10.95;10.45;;;;;;;;;;5005414;28;20032;-67
2023/03/06 09:18:28;;;;;;;11.20;10.70;;;;;;;;;;5011326;28;21616;-69
2023/03/06 09:20:54;;;;;;;10.80;10.30;;;;;;;;;;5001657;28;20141;-76
2023/03/06 09:23:19;;;;;;;11.00;10.50;;;;;;;;;;5002355;28;20014;-71
2023/03/06 09:25:50;;;;;;;10.77;10.27;;;;;;;;;;5007176;28;20604;-73
2023/03/06 09:28:16;;;;;;;10.98;10.48;;;;;;;;;;5003186;28;20075;-68
2023/03/06 09:30:42;;;;;;;10.95;10.45;;;;;;;;;;4987615;28;20053;-68
2023/03/06 09:33:07;;;;;;;10.90;10.40;;;;;;;;;;5011636;28;20018;-68
2023/03/06 09:35:32;;;;;;;10.57;10.07;;;;;;;;;;5006926;28;20018;-73
2023/03/06 09:37:58;;;;;;;10.70;10.20;;;;;;;;;;5011429;28;20084;-67
2023/03/06 09:40:29;;;;;;;10.43;9.93;;;;;;;;;;5009413;28;20033;-66
2023/03/06 09:42:54;;;;;;;10.43;9.93;;;;;;;;;;5011190;28;20030;-71
2023/03/06 09:45:20;;;;;;;10.77;10.27;;;;;;;;;;5016277;28;20028;-70
2023/03/06 09:47:57;;;;;;;10.20;9.80;;;;;;;;;;5006750;28;20021;-68
2023/03/06 09:50:42;;;;;;;10.70;10.20;;;;;;;;;;5007288;28;20097;-68
2023/03/06 09:53:16;;;;;;;11.30;10.80;;;;;;;;;;5014369;28;20025;-70
2023/03/06 09:55:43;;;;;;;;;;;;;;;;;;5007156;28;20102;-71
2023/03/06 09:58:22;;;;;;;11.40;10.90;;;;;;;;;;4993089;28;19935;-70
2023/03/06 10:00:59;;;;;;;11.10;10.60;;;;;;;;;;5005611;28;20536;-70
2023/03/06 10:03:57;;;;;;;10.95;10.45;;;;;;;;;;5010073;28;20066;-70
2023/03/06 10:06:33;;;;;;;11.13;10.63;;;;;;;;;;4957030;28;20093;-71
2023/03/06 10:08:58;;;;;;;10.57;10.07;;;;;;;;;;5012199;28;20032;-70
2023/03/06 10:11:26;;;;;;;11.00;10.50;;;;;;;;;;4989088;28;20378;-69
2023/03/06 10:14:07;;;;;;;11.23;10.63;;;;;;;;;;5003832;28;20129;-69
2023/03/06 10:16:32;;;;;;;11.32;10.73;;;;;;;;;;5007549;28;20032;-70
2023/03/06 10:19:02;;;;;;;11.68;11.07;;;;;;;;;;4990304;28;20112;-68
2023/03/06 10:21:30;;;;;;;10.55;10.05;;;;;;;;;;5008593;28;20045;-66
2023/03/06 10:24:28;;;;;;;10.95;10.40;;;;;;;;;;5003576;28;20084;-71
2023/03/06 10:27:09;;;;;;;10.82;10.30;;;;;;;;;;4965512;28;20088;-71
2023/03/06 10:29:46;;;;;;;12.70;12.00;;;;;;;;;;5009998;28;20053;-67
2023/03/06 10:32:24;;;;;;;11.27;10.68;;;;;;;;;;5002936;28;20029;-68
2023/03/06 10:34:50;;;;;;;10.48;9.98;;;;;;;;;;5007027;28;20013;-67
2023/03/06 10:37:18;;;;;;;10.43;9.93;;;;;;;;;;5011034;28;20018;-68
2023/03/06 10:39:43;;;;;;;10.00;9.50;;;;;;;;;;5007500;28;20034;-66
2023/03/06 10:42:09;;;;;;;11.10;10.50;;;;;;;;;;4999510;28;20496;-68
2023/03/06 10:44:34;;;;;;;10.60;10.10;;;;;;;;;;5001354;28;20040;-67
2023/03/06 10:47:18;;;;;;;10.52;10.02;;;;;;;;;;4990993;28;20053;-67
2023/03/06 10:49:55;;;;;;;13.20;12.40;;;;;;;;;;5000866;28;20090;-67
2023/03/06 10:52:21;;;;;;;10.90;10.30;;;;;;;;;;4991283;28;20038;-67
2023/03/06 10:54:47;;;;;;;11.00;10.40;;;;;;;;;;5005046;28;20141;-67
2023/03/06 10:57:26;;;;;;;10.32;9.82;;;;;;;;;;5011462;28;20026;-66
2023/03/06 10:59:54;;;;;;;10.18;9.68;;;;;;;;;;5009657;28;20604;-67
2023/03/06 11:02:20;;;;;;;10.52;10.02;;;;;;;;;;5007333;28;20072;-68
2023/03/06 11:04:49;;;;;;;10.48;9.98;;;;;;;;;;5005724;28;20124;-68
2023/03/06 11:07:15;;;;;;;10.10;9.60;;;;;;;;;;5003532;28;20022;-68
2023/03/06 11:09:41;;;;;;;9.85;9.35;;;;;;;;;;5009162;28;20076;-68
2023/03/06 11:12:39;;;;;;;12.52;11.82;;;;;;;;;;5006528;28;20068;-66
2023/03/06 11:15:13;;;;;;;10.32;9.82;;;;;;;;;;4963490;28;20038;-67
2023/03/06 11:17:58;;;;;;;9.85;9.35;;;;;;;;;;5005473;28;20034;-67
2023/03/06 11:20:39;;;;;;;10.40;9.90;;;;;;;;;;5004482;28;20485;-67
2023/03/06 11:23:24;;;;;;;11.43;10.82;;;;;;;;;;4998007;28;20026;-67
2023/03/06 11:25:55;;;;;;;9.95;9.45;;;;;;;;;;4994331;28;20044;-67
2023/03/06 11:28:21;;;;;;;10.88;10.27;;;;;;;;;;5011620;28;20029;-68
2023/03/06 11:30:49;;;;;;;11.38;10.77;;;;;;;;;;4988294;28;20037;-67
2023/03/06 11:33:21;;;;;;;10.43;9.93;;;;;;;;;;5008756;28;20084;-70
2023/03/06 11:35:53;;;;;;;9.90;9.40;;;;;;;;;;5003045;28;20034;-66
2023/03/06 11:38:27;;;;;;;9.73;9.23;;;;;;;;;;5009652;28;20025;-67
2023/03/06 11:40:56;;;;;;;10.95;10.35;;;;;;;;;;5006010;28;20081;-67
2023/03/06 11:43:26;;;;;;;10.02;9.52;;;;;;;;;;5005949;28;20041;-66
2023/03/06 11:45:58;;;;;;;10.05;9.55;;;;;;;;;;5007585;28;20469;-69
2023/03/06 11:48:36;;;;;;;9.68;9.18;;;;;;;;;;5006913;28;20034;-65
2023/03/06 11:51:20;;;;;;;10.45;9.95;;;;;;;;;;5001807;28;20080;-66
2023/03/06 11:53:45;;;;;;;9.95;9.45;;;;;;;;;;5002835;28;20045;-69
2023/03/06 11:56:22;;;;;;;10.32;9.80;;;;;;;;;;5009099;28;20032;-66
2023/03/06 11:59:03;;;;;;;11.75;11.05;;;;;;;;;;5005090;28;20033;-67
2023/03/06 12:01:37;;;;;;;10.32;9.82;;;;;;;;;;5004573;28;20030;-65
2023/03/06 12:04:17;;;;;;;10.13;9.63;;;;;;;;;;5006172;28;20030;-66
2023/03/06 12:07:00;;;;;;;11.80;11.13;;;;;;;;;;5008101;28;20029;-65
2023/03/06 12:09:45;;;;;;;10.00;9.50;;;;;;;;;;5006275;28;20021;-67
2023/03/06 12:12:17;;;;;;;10.00;9.50;;;;;;;;;;5013184;28;20034;-69
2023/03/06 12:15:05;;;;;;;10.18;9.68;;;;;;;;;;5005207;28;20018;-64
2023/03/06 12:17:49;;;;;;;10.20;9.70;;;;;;;;;;4999606;28;20448;-64
2023/03/06 12:20:26;;;;;;;9.93;9.43;;;;;;;;;;5005343;28;20077;-64
2023/03/06 12:22:53;;;;;;;10.20;9.70;;;;;;;;;;5013812;28;20067;-64
2023/03/06 12:25:27;;;;;;;9.30;8.90;;;;;;;;;;5020522;28;20053;-64
2023/03/06 12:28:11;;;;;;;10.48;9.93;;;;;;;;;;5013594;28;20029;-63
2023/03/06 12:30:54;;;;;;;10.70;10.10;;;;;;;;;;5011057;28;20559;-64
2023/03/06 12:33:35;;;;;;;9.75;9.25;;;;;;;;;;5005651;28;20116;-64
2023/03/06 12:36:03;;;;;;;10.93;10.32;;;;;;;;;;5015655;28;20217;-64
2023/03/06 12:38:47;;;;;;;10.40;9.90;;;;;;;;;;5013274;28;20033;-64
2023/03/06 12:41:21;;;;;;;10.43;9.93;;;;;;;;;;5013506;28;20481;-66
2023/03/06 12:44:00;;;;;;;10.23;9.73;;;;;;;;;;5009123;28;20030;-68
2023/03/06 12:46:27;;;;;;;10.18;9.68;;;;;;;;;;5005114;28;20046;-70
2023/03/06 12:49:02;;;;;;;9.80;9.30;;;;;;;;;;5010798;28;20336;-67
2023/03/06 12:51:27;;;;;;;9.45;9.05;;;;;;;;;;4999827;28;20119;-68
2023/03/06 12:53:53;;;;;;;10.88;10.27;;;;;;;;;;5003724;28;20022;-67
2023/03/06 12:56:20;;;;;;;11.07;10.48;;;;;;;;;;5005153;28;20030;-71
2023/03/06 12:58:46;;;;;;;10.23;9.73;;;;;;;;;;5001933;28;20371;-68
2023/03/06 13:01:30;;;;;;;10.23;9.73;;;;;;;;;;5013848;28;20021;-67
2023/03/06 13:04:17;;;;;;;10.60;10.05;;;;;;;;;;5022259;28;20030;-68
2023/03/06 13:06:47;;;;;;;10.43;9.93;;;;;;;;;;5006014;28;20036;-68
2023/03/06 13:09:24;;;;;;;10.18;9.68;;;;;;;;;;4994555;28;20113;-72
2023/03/06 13:12:08;;;;;;;10.85;10.25;;;;;;;;;;5012286;28;20109;-74
2023/03/06 13:14:33;;;;;;;10.05;9.55;;;;;;;;;;5007659;28;20496;-71
2023/03/06 13:17:17;;;;;;;10.18;9.68;;;;;;;;;;5009124;28;20018;-69
2023/03/06 13:19:43;;;;;;;9.80;9.30;;;;;;;;;;5012064;28;20061;-68
2023/03/06 13:22:27;;;;;;;10.00;9.50;;;;;;;;;;5004188;28;20072;-69
2023/03/06 13:25:11;;;;;;;10.00;9.50;;;;;;;;;;5010325;28;20520;-69
2023/03/06 13:27:52;;;;;;;9.73;9.23;;;;;;;;;;5013944;28;20087;-70
2023/03/06 13:30:24;;;;;;;10.32;9.82;;;;;;;;;;5011590;28;20490;-68
2023/03/06 13:32:51;;;;;;;10.32;9.82;;;;;;;;;;4985113;28;20030;-70
2023/03/06 13:35:29;;;;;;;10.90;10.30;;;;;;;;;;5014112;28;20102;-70
2023/03/06 13:37:55;;;;;;;9.52;9.05;;;;;;;;;;5003954;28;20788;-68
2023/03/06 13:40:26;;;;;;;9.38;8.98;;;;;;;;;;5007508;28;20045;-68
2023/03/06 13:42:51;;;;;;;10.27;9.77;;;;;;;;;;5009395;28;20032;-71
2023/03/06 13:45:28;;;;;;;13.18;12.38;;;;;;;;;;5007646;28;20022;-63
2023/03/06 13:47:55;;;;;;;10.88;10.27;;;;;;;;;;5014164;28;20109;-66
2023/03/06 13:50:35;;;;;;;11.32;10.73;;;;;;;;;;5007834;28;20119;-64
2023/03/06 13:53:19;;;;;;;11.70;11.00;;;;;;;;;;5003858;28;20021;-64
2023/03/06 13:56:03;;;;;;;9.90;9.40;;;;;;;;;;5007304;28;20018;-62
2023/03/06 13:58:38;;;;;;;9.85;9.35;;;;;;;;;;5005072;28;20267;-67
2023/03/06 14:01:18;;;;;;;10.02;9.52;;;;;;;;;;5009087;28;20057;-65
2023/03/06 14:04:02;;;;;;;9.55;9.05;;;;;;;;;;4992443;28;20113;-67
2023/03/06 14:06:33;;;;;;;9.80;9.30;;;;;;;;;;5009737;28;20029;-68
2023/03/06 14:08:59;;;;;;;11.38;10.77;;;;;;;;;;5008692;28;20552;-67
2023/03/06 14:11:26;;;;;;;10.13;9.63;;;;;;;;;;4989623;28;20037;-64
2023/03/06 14:13:53;;;;;;;10.02;9.52;;;;;;;;;;5008443;28;20077;-66
2023/03/06 14:16:20;;;;;;;9.68;9.18;;;;;;;;;;5012690;28;20010;-67
2023/03/06 14:18:48;;;;;;;10.77;10.18;;;;;;;;;;5014531;28;20033;-67
2023/03/06 14:21:20;;;;;;;10.30;9.80;;;;;;;;;;5003268;28;20022;-65
2023/03/06 14:23:46;;;;;;;10.45;9.95;;;;;;;;;;5008144;28;20084;-66
2023/03/06 14:26:14;;;;;;;10.77;10.18;;;;;;;;;;5004338;28;20481;-68
2023/03/06 14:28:39;;;;;;;10.88;10.27;;;;;;;;;;5007619;28;20500;-66
2023/03/06 14:31:05;;;;;;;10.05;9.55;;;;;;;;;;5004906;28;20092;-67
2023/03/06 14:33:33;;;;;;;11.38;10.77;;;;;;;;;;5010548;28;20018;-67
2023/03/06 14:36:01;;;;;;;9.93;9.43;;;;;;;;;;5003446;28;20109;-67
2023/03/06 14:38:29;;;;;;;10.98;10.38;;;;;;;;;;5002280;28;20034;-67
2023/03/06 14:40:55;;;;;;;10.13;9.63;;;;;;;;;;4976842;28;20511;-69
2023/03/06 14:43:25;;;;;;;11.00;10.40;;;;;;;;;;5008108;28;20101;-69